Bookmark and Share
Track history (hours):
 

Shoukeimaruno.3

Last reported at 2014-Apr-23 07:07 UTC. Time now 2014-Apr-24 04:15 UTC.
Position N 34°50' E 139°12'.

Length 77 m; draft 4.2 m.

Type: Cargo ship. MMSI: 431300325.

NotesDate/timePositionNaut miles runAvg speedWind from/ knotsBaromVisibWave heightAir tempDewpointWater temp
2014-Apr-23 07:07N 34°50' E 139°12'1710.2
2014-Apr-23 05:27N 34°60' E 139°29'910.6
2014-Apr-23 04:34N 35°05' E 139°38'1110.7
2014-Apr-23 03:33N 35°13' E 139°46'1111.0
2014-Apr-23 02:34N 35°23' E 139°41'1 0.9
2014-Apr-23 01:34N 35°24' E 139°40'0 0.0
2014-Apr-23 00:34N 35°24' E 139°40'0 0.0
2014-Apr-22 23:33N 35°24' E 139°40'0 0.1
2014-Apr-22 22:33N 35°24' E 139°40'0 0.5
2014-Apr-22 21:34N 35°24' E 139°40'0 0.0
2014-Apr-22 20:33N 35°24' E 139°40'0 0.0
2014-Apr-22 19:34N 35°24' E 139°40'0 0.0
2014-Apr-22 18:34N 35°24' E 139°40'1110.6
2014-Apr-22 17:34N 35°15' E 139°47'1111.0
2014-Apr-22 16:34N 35°04' E 139°45'1211.5
2014-Apr-22 15:33N 34°56' E 139°34'18 1.0
2014-Apr-21 22:16N 34°51' E 139°13'1111.8
2014-Apr-21 21:20N 34°57' E 139°25'911.6
2014-Apr-21 20:33N 35°03' E 139°34'1211.6
2014-Apr-21 19:33N 35°10' E 139°45'1010.5
2014-Apr-21 18:34N 35°20' E 139°42'4 4.3
2014-Apr-21 17:33N 35°24' E 139°40'0 0.0
2014-Apr-21 16:34N 35°24' E 139°40'0 0.0
2014-Apr-21 15:33N 35°24' E 139°40'0 0.0
2014-Apr-21 14:34N 35°24' E 139°40'1 0.6
2014-Apr-21 13:34N 35°24' E 139°40'0 0.1
2014-Apr-21 12:34N 35°24' E 139°40'0 0.0
2014-Apr-21 11:34N 35°24' E 139°40'0 0.1
2014-Apr-21 10:34N 35°24' E 139°40'2 2.1
2014-Apr-21 09:33N 35°24' E 139°42'1110.6
2014-Apr-21 08:33N 35°29' E 139°54'5 5.2
2014-Apr-21 07:34N 35°28' E 139°60'0 0.0
2014-Apr-21 06:34N 35°28' E 139°60'0 0.0
2014-Apr-21 05:33N 35°28' E 139°60'0 0.0
2014-Apr-21 04:33N 35°28' E 139°60'0 0.0
2014-Apr-21 03:33N 35°28' E 139°60'0 0.0
2014-Apr-21 02:34N 35°28' E 139°60'0 0.0
2014-Apr-21 01:34N 35°28' E 139°60'0 0.0
2014-Apr-21 00:33N 35°28' E 139°60'0 0.0
2014-Apr-20 23:34N 35°28' E 139°60'1 0.7
2014-Apr-20 22:34N 35°29' E 139°59'0 0.0
2014-Apr-20 21:34N 35°29' E 139°59'0 0.0
2014-Apr-20 20:33N 35°29' E 139°59'0 0.0
2014-Apr-20 19:34N 35°29' E 139°59'0 0.0
2014-Apr-20 18:33N 35°29' E 139°59'0 0.0
2014-Apr-20 17:33N 35°29' E 139°59'0 0.0
2014-Apr-20 16:33N 35°29' E 139°59'0 0.0
2014-Apr-20 15:34N 35°29' E 139°59'0 0.0
2014-Apr-20 14:33N 35°29' E 139°59'0 0.0
2014-Apr-20 13:34N 35°29' E 139°59'0 0.0
2014-Apr-20 12:33N 35°29' E 139°59'0 0.0
2014-Apr-20 11:33N 35°29' E 139°59'0 0.0
2014-Apr-20 10:34N 35°29' E 139°59'0 0.0
2014-Apr-20 09:32N 35°29' E 139°59'0 0.0
2014-Apr-20 08:33N 35°29' E 139°59'0 0.0
2014-Apr-20 07:33N 35°29' E 139°59'8 7.6
2014-Apr-20 06:33N 35°27' E 139°50'1010.3
2014-Apr-20 05:34N 35°17' E 139°45'1010.0
2014-Apr-20 04:33N 35°07' E 139°46'10 9.9
2014-Apr-20 03:33N 34°58' E 139°44'12 8.6
2014-Apr-20 02:10N 34°53' E 139°57'810.0
2014-Apr-20 01:21N 34°58' E 140°06'4010.3
2014-Apr-19 21:25N 35°26' E 140°41'  
2014-Apr-16 21:22N 35°58' E 141°01'810.2
2014-Apr-16 20:34N 35°50' E 141°00'1110.2
2014-Apr-16 19:27N 35°39' E 140°59'1110.8
2014-Apr-16 18:28N 35°31' E 140°50'2311.8
2014-Apr-16 16:32N 35°13' E 140°33'1712.5
2014-Apr-16 15:11N 35°02' E 140°18'711.8
2014-Apr-16 14:33N 34°58' E 140°09'1211.5
2014-Apr-16 13:33N 34°53' E 139°57'10 9.9
2014-Apr-16 12:33N 34°56' E 139°46'1110.5
2014-Apr-16 11:34N 35°06' E 139°45'1111.1
2014-Apr-16 10:34N 35°17' E 139°45'9 9.5
2014-Apr-16 09:34N 35°27' E 139°46'1110.8
2014-Apr-16 08:34N 35°32' E 139°58'7 7.3
2014-Apr-16 07:33N 35°36' E 140°05'0 0.0
2014-Apr-16 06:31N 35°36' E 140°05'0 0.1
2014-Apr-16 05:33N 35°36' E 140°05'0 0.0
2014-Apr-16 04:33N 35°36' E 140°05'0 0.0
2014-Apr-16 03:33N 35°36' E 140°05'0 0.0
2014-Apr-16 02:34N 35°36' E 140°05'0 0.0
2014-Apr-16 01:33N 35°36' E 140°05'0 0.0
2014-Apr-16 00:33N 35°36' E 140°05'7 6.7
2014-Apr-15 23:33N 35°32' E 139°59'1211.7
2014-Apr-15 22:33N 35°25' E 139°47'1010.0
2014-Apr-15 21:33N 35°15' E 139°47'1111.5
2014-Apr-15 20:34N 35°04' E 139°45'1111.1
2014-Apr-15 19:33N 34°53' E 139°48'1210.3
2014-Apr-15 18:23N 34°55' E 140°02'910.6
2014-Apr-15 17:33N 34°59' E 140°12'22 9.8
2014-Apr-15 15:17N 35°15' E 140°30'40 5.9
2014-Apr-15 08:31N 35°53' E 140°41'0 0.3
2014-Apr-15 06:34N 35°53' E 140°41'0 0.0
2014-Apr-15 03:34N 35°53' E 140°41'64 8.0
2014-Apr-14 19:34N 34°56' E 140°05'17 8.7
2014-Apr-14 17:34N 34°57' E 139°44'1010.1
2014-Apr-14 16:34N 35°07' E 139°45'1010.5
2014-Apr-14 15:34N 35°18' E 139°44'8 8.0
2014-Apr-14 14:34N 35°24' E 139°37'0 0.0
2014-Apr-14 13:34N 35°24' E 139°37'0 0.0
2014-Apr-14 11:34N 35°24' E 139°37'0 0.0
2014-Apr-14 10:34N 35°24' E 139°37'0 0.0
2014-Apr-14 09:34N 35°24' E 139°37'0 0.0
2014-Apr-14 08:34N 35°24' E 139°37'3 2.9
2014-Apr-14 07:34N 35°23' E 139°41'1211.9
2014-Apr-14 06:34N 35°30' E 139°53'5 4.8
2014-Apr-14 05:33N 35°27' E 139°58'0 0.0
2014-Apr-13 22:34N 35°27' E 139°58'2 1.8
2014-Apr-13 21:33N 35°29' E 139°57'0 0.0
2014-Apr-13 20:34N 35°29' E 139°57'0 0.0
2014-Apr-13 19:34N 35°29' E 139°57'0 0.0
2014-Apr-13 18:34N 35°29' E 139°57'0 0.0
2014-Apr-13 17:34N 35°29' E 139°57'0 0.0
2014-Apr-13 16:33N 35°29' E 139°57'0 0.0
2014-Apr-13 15:33N 35°29' E 139°57'0 0.0
2014-Apr-13 14:33N 35°29' E 139°57'0 0.0
2014-Apr-13 13:33N 35°29' E 139°57'0 0.0
2014-Apr-13 12:33N 35°29' E 139°57'0 0.0
2014-Apr-13 11:33N 35°29' E 139°57'0 0.0
2014-Apr-13 10:33N 35°29' E 139°57'0 0.0
2014-Apr-13 09:32N 35°29' E 139°57'0 0.0
2014-Apr-13 08:33N 35°29' E 139°57'0 0.0
2014-Apr-13 07:34N 35°29' E 139°57'  

Dump ship's entire track history

sailing weather and tide predictions

Shoukeimaruno.3 — JI3587 — position and weather